createdAt,value
2022-11-16T00:01:35.295Z,7.32
2022-11-16T00:04:03.105Z,7.33
2022-11-16T00:06:30.405Z,7.34
2022-11-16T00:09:00.136Z,7.33
2022-11-16T00:11:26.980Z,7.32
2022-11-16T00:13:53.836Z,7.27
2022-11-16T00:16:20.632Z,7.29
2022-11-16T00:18:47.431Z,7.29
2022-11-16T00:21:14.136Z,7.31
2022-11-16T00:23:41.289Z,7.29
2022-11-16T00:26:12.395Z,7.29
2022-11-16T00:28:39.346Z,7.34
2022-11-16T00:31:07.477Z,7.34
2022-11-16T00:33:34.509Z,7.35
2022-11-16T00:36:03.218Z,7.39
2022-11-16T00:38:30.383Z,7.30
2022-11-16T00:40:57.397Z,7.36
2022-11-16T00:43:24.656Z,7.37
2022-11-16T00:45:51.444Z,7.36
2022-11-16T00:48:18.581Z,7.33
2022-11-16T00:50:46.502Z,7.34
2022-11-16T00:53:15.858Z,7.32
2022-11-16T00:55:44.920Z,7.34
2022-11-16T00:58:13.302Z,7.30
2022-11-16T01:00:43.178Z,7.30
2022-11-16T01:03:10.722Z,7.32
2022-11-16T01:05:38.082Z,7.32
2022-11-16T01:08:05.349Z,7.28
2022-11-16T01:10:32.919Z,7.31
2022-11-16T01:12:59.965Z,7.32
2022-11-16T01:15:28.079Z,7.28
2022-11-16T01:17:56.768Z,7.34
2022-11-16T01:20:29.231Z,7.34
2022-11-16T01:22:56.682Z,7.30
2022-11-16T01:25:23.520Z,7.32
2022-11-16T01:27:50.431Z,7.34
2022-11-16T01:30:28.124Z,7.33
2022-11-16T01:33:02.694Z,7.37
2022-11-16T01:35:29.574Z,7.35
2022-11-16T01:37:56.382Z,7.36
2022-11-16T01:40:23.371Z,7.35
2022-11-16T01:42:50.273Z,7.35
2022-11-16T01:45:21.501Z,7.36
2022-11-16T01:47:53.830Z,7.32
2022-11-16T01:50:24.492Z,7.38
2022-11-16T01:53:04.555Z,7.37
2022-11-16T01:55:41.057Z,7.34
2022-11-16T01:58:26.354Z,7.33
2022-11-16T02:00:59.225Z,7.28
2022-11-16T02:03:41.365Z,7.28
2022-11-16T02:06:27.208Z,7.25
2022-11-16T02:09:43.293Z,7.28
2022-11-16T02:13:07.305Z,7.29
2022-11-16T02:15:49.646Z,7.29
2022-11-16T02:18:41.636Z,7.31
2022-11-16T02:21:30.812Z,7.25
2022-11-16T02:24:42.585Z,7.25
2022-11-16T02:27:49.634Z,7.22
2022-11-16T02:30:18.980Z,7.24
2022-11-16T02:33:03.075Z,7.23
2022-11-16T02:35:52.566Z,7.22
2022-11-16T02:38:27.197Z,7.20
2022-11-16T02:41:19.136Z,7.24
2022-11-16T02:43:52.667Z,7.24
2022-11-16T02:46:29.374Z,7.25
2022-11-16T02:49:01.055Z,7.23
2022-11-16T02:51:29.530Z,7.17
2022-11-16T02:54:03.267Z,7.17
2022-11-16T02:56:56.678Z,7.17
2022-11-16T02:59:33.575Z,7.14
2022-11-16T03:02:17.527Z,7.20
2022-11-16T03:04:49.346Z,7.18
2022-11-16T03:07:21.362Z,7.15
2022-11-16T03:09:50.519Z,7.15
2022-11-16T03:12:22.672Z,7.17
2022-11-16T03:14:54.767Z,7.09
2022-11-16T03:17:32.148Z,7.11
2022-11-16T03:20:03.916Z,7.08
2022-11-16T03:22:39.660Z,7.08
2022-11-16T03:25:09.178Z,7.14
2022-11-16T03:27:45.234Z,7.11
2022-11-16T03:30:23.344Z,7.09
2022-11-16T03:33:07.069Z,7.08
2022-11-16T03:35:56.612Z,7.07
2022-11-16T03:38:26.641Z,7.00
2022-11-16T03:40:58.798Z,7.06
2022-11-16T03:43:27.352Z,7.00
2022-11-16T03:45:56.101Z,7.02
2022-11-16T03:48:24.269Z,7.01
2022-11-16T03:50:52.711Z,6.98
2022-11-16T03:53:20.340Z,6.98
2022-11-16T03:55:49.904Z,6.95
2022-11-16T03:58:17.860Z,6.96
2022-11-16T04:00:45.852Z,6.99
2022-11-16T04:03:12.912Z,7.00
2022-11-16T04:05:40.117Z,6.98
2022-11-16T04:08:15.105Z,7.00
2022-11-16T04:10:44.472Z,7.00
2022-11-16T04:13:14.502Z,6.95
2022-11-16T04:15:41.398Z,6.91
2022-11-16T04:18:11.212Z,6.92
2022-11-16T04:20:38.100Z,6.99
2022-11-16T04:23:07.416Z,6.95
2022-11-16T04:25:38.366Z,6.90
2022-11-16T04:28:13.886Z,6.88
2022-11-16T04:30:50.832Z,6.86
2022-11-16T04:33:19.285Z,6.88
2022-11-16T04:35:46.522Z,6.89
2022-11-16T04:38:14.598Z,6.88
2022-11-16T04:40:41.397Z,6.91
2022-11-16T04:43:11.169Z,6.88
2022-11-16T04:45:40.853Z,6.90
2022-11-16T04:48:10.655Z,6.95
2022-11-16T04:50:38.205Z,6.98
2022-11-16T04:53:05.895Z,6.96
2022-11-16T04:55:38.912Z,6.86
2022-11-16T04:58:06.054Z,6.89
2022-11-16T05:00:32.958Z,6.96
2022-11-16T05:03:01.825Z,6.91
2022-11-16T05:05:29.856Z,6.90
2022-11-16T05:07:58.447Z,6.89
2022-11-16T05:10:28.520Z,6.94
2022-11-16T05:12:56.227Z,6.91
2022-11-16T05:15:24.149Z,6.92
2022-11-16T05:17:51.008Z,6.91
2022-11-16T05:20:21.810Z,6.91
2022-11-16T05:22:54.648Z,6.90
2022-11-16T05:25:23.969Z,6.96
2022-11-16T05:27:51.467Z,6.94
2022-11-16T05:30:18.751Z,6.88
2022-11-16T05:32:45.649Z,6.86
2022-11-16T05:35:14.550Z,6.92
2022-11-16T05:37:42.683Z,6.89
2022-11-16T05:40:10.529Z,6.93
2022-11-16T05:42:43.839Z,6.89
2022-11-16T05:45:10.739Z,6.91
2022-11-16T05:47:37.660Z,6.90
2022-11-16T05:50:04.873Z,6.92
2022-11-16T05:52:38.053Z,6.86
2022-11-16T05:55:08.899Z,6.91
2022-11-16T05:57:41.783Z,6.88
2022-11-16T06:00:09.927Z,6.83
2022-11-16T06:02:45.413Z,6.89
2022-11-16T06:05:20.162Z,6.86
2022-11-16T06:07:48.097Z,6.88
2022-11-16T06:10:15.420Z,6.80
2022-11-16T06:12:44.344Z,6.82
2022-11-16T06:15:11.249Z,6.86
2022-11-16T06:17:38.096Z,6.87
2022-11-16T06:20:07.085Z,6.86
2022-11-16T06:22:37.079Z,6.93
2022-11-16T06:25:05.646Z,6.91
2022-11-16T06:27:37.704Z,6.89
2022-11-16T06:30:05.020Z,6.87
2022-11-16T06:32:33.591Z,6.89
2022-11-16T06:35:00.726Z,6.85
2022-11-16T06:37:28.079Z,6.81
2022-11-16T06:39:55.818Z,6.79
2022-11-16T06:42:23.764Z,6.82
2022-11-16T06:44:51.748Z,6.86
2022-11-16T06:47:22.731Z,6.87
2022-11-16T06:49:49.639Z,6.93
2022-11-16T06:52:21.092Z,6.86
2022-11-16T06:54:48.259Z,6.89
2022-11-16T06:57:15.103Z,6.87
2022-11-16T06:59:41.907Z,6.85
2022-11-16T07:02:11.103Z,6.87
2022-11-16T07:04:38.802Z,6.88
2022-11-16T07:07:05.761Z,6.86
2022-11-16T07:09:34.650Z,6.86
2022-11-16T07:12:01.427Z,6.88
2022-11-16T07:14:34.772Z,6.88
2022-11-16T07:17:09.097Z,6.88
2022-11-16T07:19:36.521Z,6.92
2022-11-16T07:22:03.773Z,6.89
2022-11-16T07:24:30.871Z,6.93
2022-11-16T07:26:57.855Z,6.94
2022-11-16T07:29:27.101Z,6.91
2022-11-16T07:32:22.864Z,6.92
2022-11-16T07:35:12.233Z,6.95
2022-11-16T07:37:39.832Z,6.94
2022-11-16T07:40:08.964Z,6.92
2022-11-16T07:42:38.334Z,6.97
2022-11-16T07:45:25.578Z,6.99
2022-11-16T07:47:57.465Z,6.96
2022-11-16T07:51:04.627Z,6.95
2022-11-16T07:53:33.935Z,6.99
2022-11-16T07:56:01.357Z,6.93
2022-11-16T07:58:32.947Z,6.91
2022-11-16T08:01:08.065Z,6.91
2022-11-16T08:03:36.009Z,6.93
2022-11-16T08:06:13.202Z,6.91
2022-11-16T08:08:43.298Z,6.96
2022-11-16T08:11:12.678Z,6.92
2022-11-16T08:13:41.328Z,6.93
2022-11-16T08:16:19.049Z,6.91
2022-11-16T08:18:48.100Z,7.00
2022-11-16T08:21:17.908Z,6.98
2022-11-16T08:23:46.927Z,6.94
2022-11-16T08:26:17.788Z,6.93
2022-11-16T08:28:50.188Z,6.94
2022-11-16T08:31:21.793Z,7.00
2022-11-16T08:33:52.621Z,6.98
2022-11-16T08:36:20.542Z,6.95
2022-11-16T08:38:50.759Z,6.98
2022-11-16T08:41:20.878Z,7.03
2022-11-16T08:43:48.819Z,7.00
2022-11-16T08:46:15.724Z,6.98
2022-11-16T08:48:46.512Z,7.00
2022-11-16T08:51:17.829Z,7.01
2022-11-16T08:53:55.225Z,7.06
2022-11-16T08:56:22.294Z,7.03
2022-11-16T08:58:53.802Z,7.06
2022-11-16T09:01:26.435Z,7.06
2022-11-16T09:03:53.652Z,7.08
2022-11-16T09:06:21.046Z,7.10
2022-11-16T09:08:47.905Z,7.10
2022-11-16T09:11:17.312Z,7.06
2022-11-16T09:13:45.676Z,7.06
2022-11-16T09:16:12.827Z,7.06
2022-11-16T09:18:39.614Z,7.10
2022-11-16T09:21:06.490Z,7.06
2022-11-16T09:23:33.247Z,7.05
2022-11-16T09:26:05.377Z,7.08
2022-11-16T09:28:32.825Z,7.12
2022-11-16T09:31:02.044Z,7.10
2022-11-16T09:33:30.824Z,7.13
2022-11-16T09:36:02.140Z,7.16
2022-11-16T09:38:40.587Z,7.16
2022-11-16T09:41:15.753Z,7.22
2022-11-16T09:44:02.187Z,7.22
2022-11-16T09:46:36.097Z,7.23
2022-11-16T09:49:17.192Z,7.21
2022-11-16T09:51:49.440Z,7.24
2022-11-16T09:54:20.125Z,7.26
2022-11-16T09:56:51.688Z,7.24
2022-11-16T09:59:25.703Z,7.27
2022-11-16T10:02:05.246Z,7.30
2022-11-16T10:04:40.414Z,7.31
2022-11-16T10:07:18.201Z,7.30
2022-11-16T10:09:46.445Z,7.31
2022-11-16T10:12:41.308Z,7.33
2022-11-16T10:15:31.490Z,7.36
2022-11-16T10:18:24.356Z,7.39
2022-11-16T10:20:59.859Z,7.39
2022-11-16T10:23:46.756Z,7.42
2022-11-16T10:26:58.509Z,7.40
2022-11-16T10:30:02.198Z,7.39
2022-11-16T10:32:32.361Z,7.41
2022-11-16T10:35:03.633Z,7.41
2022-11-16T10:37:37.452Z,7.40
2022-11-16T10:40:16.853Z,7.40
2022-11-16T10:42:46.789Z,7.41
2022-11-16T10:45:19.822Z,7.38
2022-11-16T10:47:53.751Z,7.38
2022-11-16T10:50:49.962Z,7.39
2022-11-16T10:53:46.358Z,7.43
2022-11-16T10:56:18.990Z,7.45
2022-11-16T10:59:06.646Z,7.47
2022-11-16T11:01:45.375Z,7.47
2022-11-16T11:04:27.111Z,7.43
2022-11-16T11:07:30.013Z,7.42
2022-11-16T11:09:56.840Z,7.41
2022-11-16T11:12:25.374Z,7.39
2022-11-16T11:15:10.578Z,7.41
2022-11-16T11:17:39.824Z,7.42
2022-11-16T11:20:17.270Z,7.42
2022-11-16T11:22:53.279Z,7.42
2022-11-16T11:25:25.347Z,7.45
2022-11-16T11:28:19.979Z,7.46
2022-11-16T11:31:17.038Z,7.49
2022-11-16T11:33:51.824Z,7.50
2022-11-16T11:36:25.060Z,7.50
2022-11-16T11:39:21.240Z,7.54
2022-11-16T11:42:14.553Z,7.58
2022-11-16T11:44:44.039Z,7.58
2022-11-16T11:48:01.188Z,7.60
2022-11-16T11:50:33.893Z,7.62
2022-11-16T11:53:34.833Z,7.62
2022-11-16T11:56:01.992Z,7.65
2022-11-16T11:58:35.165Z,7.65
2022-11-16T12:01:22.218Z,7.66
2022-11-16T12:04:28.976Z,7.71
2022-11-16T12:07:32.881Z,7.71
2022-11-16T12:10:03.789Z,7.79
2022-11-16T12:12:55.358Z,7.74
2022-11-16T12:16:19.015Z,7.66
2022-11-16T12:19:19.679Z,7.56
2022-11-16T12:22:17.368Z,7.46
2022-11-16T12:24:49.859Z,7.40
2022-11-16T12:27:35.969Z,7.34
2022-11-16T12:30:16.563Z,7.26
2022-11-16T12:33:00.662Z,7.23
2022-11-16T12:35:45.407Z,7.17
2022-11-16T12:38:39.231Z,7.21
2022-11-16T12:41:08.928Z,7.18
2022-11-16T12:43:54.410Z,7.19
2022-11-16T12:46:44.839Z,7.16
2022-11-16T12:49:50.318Z,7.22
2022-11-16T12:52:52.879Z,7.18
2022-11-16T12:55:28.769Z,7.16
2022-11-16T12:58:04.716Z,7.17
2022-11-16T13:00:53.563Z,7.19
2022-11-16T13:03:29.685Z,7.18
2022-11-16T13:06:06.748Z,7.19
2022-11-16T13:08:58.232Z,7.21
2022-11-16T13:11:55.123Z,7.24
2022-11-16T13:14:33.561Z,7.25
2022-11-16T13:17:02.537Z,7.27
2022-11-16T13:19:30.605Z,7.25
2022-11-16T13:21:57.339Z,7.25
2022-11-16T13:24:59.820Z,7.25
2022-11-16T13:27:32.655Z,7.25
2022-11-16T13:30:18.356Z,7.25
2022-11-16T13:33:27.348Z,7.27
2022-11-16T13:35:54.357Z,7.28
2022-11-16T13:38:51.266Z,7.30
2022-11-16T13:41:38.325Z,7.32
2022-11-16T13:44:33.419Z,7.33
2022-11-16T13:47:05.057Z,7.34
2022-11-16T13:49:41.675Z,7.37
2022-11-16T13:52:40.436Z,7.38
2022-11-16T13:55:13.822Z,7.38
2022-11-16T13:57:52.274Z,7.38
2022-11-16T14:00:23.479Z,7.36
2022-11-16T14:03:10.561Z,7.35
2022-11-16T14:05:40.635Z,7.36
2022-11-16T14:08:30.525Z,7.36
2022-11-16T14:11:01.217Z,7.36
2022-11-16T14:13:40.216Z,7.37
2022-11-16T14:16:30.032Z,7.37
2022-11-16T14:18:59.821Z,7.40
2022-11-16T14:21:46.500Z,7.41
2022-11-16T14:24:38.009Z,7.37
2022-11-16T14:27:31.457Z,7.37
2022-11-16T14:30:24.861Z,7.37
2022-11-16T14:32:55.260Z,7.38
2022-11-16T14:35:40.769Z,7.33
2022-11-16T14:38:36.349Z,7.34
2022-11-16T14:41:06.409Z,7.37
2022-11-16T14:43:42.606Z,7.41
2022-11-16T14:46:35.890Z,7.42
2022-11-16T14:49:03.359Z,7.42
2022-11-16T14:51:43.413Z,7.44
2022-11-16T14:54:27.009Z,7.45
2022-11-16T14:57:06.492Z,7.48
2022-11-16T14:59:33.263Z,7.49
2022-11-16T15:02:12.495Z,7.53
2022-11-16T15:04:39.777Z,7.51
2022-11-16T15:07:07.634Z,7.49
2022-11-16T15:09:37.761Z,7.48
2022-11-16T15:12:11.883Z,7.45
2022-11-16T15:14:46.133Z,7.46
2022-11-16T15:17:19.393Z,7.45
2022-11-16T15:20:15.384Z,7.44
2022-11-16T15:22:45.909Z,7.44
2022-11-16T15:25:28.167Z,7.44
2022-11-16T15:27:57.053Z,7.47
2022-11-16T15:30:33.525Z,7.47
2022-11-16T15:33:10.999Z,7.49
2022-11-16T15:35:38.444Z,7.50
2022-11-16T15:38:28.446Z,7.48
2022-11-16T15:41:01.298Z,7.44
2022-11-16T15:44:01.469Z,7.44
2022-11-16T15:46:33.606Z,7.42
2022-11-16T15:49:01.165Z,7.41
2022-11-16T15:51:28.017Z,7.40
2022-11-16T15:53:55.798Z,7.40
2022-11-16T15:56:25.729Z,7.39
2022-11-16T15:58:58.343Z,7.40
2022-11-16T16:01:25.997Z,7.40
2022-11-16T16:03:57.310Z,7.41
2022-11-16T16:06:58.447Z,7.40
2022-11-16T16:09:28.937Z,7.37
2022-11-16T16:12:14.469Z,7.34
2022-11-16T16:14:41.618Z,7.37
2022-11-16T16:17:10.308Z,7.35
2022-11-16T16:19:41.902Z,7.36
2022-11-16T16:22:26.519Z,7.36
2022-11-16T16:24:53.723Z,7.36
2022-11-16T16:27:26.199Z,7.35
2022-11-16T16:29:55.249Z,7.35
2022-11-16T16:32:32.450Z,7.34
2022-11-16T16:35:01.820Z,7.34
2022-11-16T16:37:31.591Z,7.33
2022-11-16T16:39:58.895Z,7.33
2022-11-16T16:42:25.804Z,7.31
2022-11-16T16:44:53.077Z,7.32
2022-11-16T16:47:20.856Z,7.31
2022-11-16T16:49:51.365Z,7.31
2022-11-16T16:52:18.276Z,7.29
2022-11-16T16:54:46.094Z,7.30
2022-11-16T16:57:18.035Z,7.28
2022-11-16T16:59:46.463Z,7.30
2022-11-16T17:02:14.346Z,7.32
2022-11-16T17:04:41.667Z,7.32
2022-11-16T17:07:08.649Z,7.32
2022-11-16T17:09:37.257Z,7.33
2022-11-16T17:12:05.045Z,7.31
2022-11-16T17:14:32.195Z,7.32
2022-11-16T17:17:02.358Z,7.30
2022-11-16T17:19:30.418Z,7.31
2022-11-16T17:21:57.666Z,7.31
2022-11-16T17:24:25.397Z,7.32
2022-11-16T17:26:53.060Z,7.29
2022-11-16T17:29:20.451Z,7.28
2022-11-16T17:31:48.263Z,7.22
2022-11-16T17:34:17.216Z,7.25
2022-11-16T17:36:44.887Z,7.27
2022-11-16T17:39:12.547Z,7.28
2022-11-16T17:41:40.161Z,7.27
2022-11-16T17:44:08.707Z,7.26
2022-11-16T17:46:37.689Z,7.22
2022-11-16T17:49:05.383Z,7.25
2022-11-16T17:51:40.129Z,7.25
2022-11-16T17:54:07.561Z,7.24
2022-11-16T17:56:36.470Z,7.29
2022-11-16T17:59:04.360Z,7.31
2022-11-16T18:01:31.733Z,7.32
2022-11-16T18:04:01.091Z,7.32
2022-11-16T18:06:28.910Z,7.31
2022-11-16T18:08:57.401Z,7.37
2022-11-16T18:11:28.238Z,7.42
2022-11-16T18:14:01.321Z,7.44
2022-11-16T18:16:32.039Z,7.44
2022-11-16T18:19:06.007Z,7.43
2022-11-16T18:21:41.575Z,7.43
2022-11-16T18:24:10.332Z,7.43
2022-11-16T18:26:39.113Z,7.44
2022-11-16T18:29:08.866Z,7.47
2022-11-16T18:31:36.473Z,7.47
2022-11-16T18:34:04.521Z,7.55
2022-11-16T18:36:32.184Z,7.53
2022-11-16T18:39:00.672Z,7.52
2022-11-16T18:41:29.949Z,7.57
2022-11-16T18:44:02.344Z,7.57
2022-11-16T18:46:32.570Z,7.54
2022-11-16T18:49:01.226Z,7.51
2022-11-16T18:51:30.543Z,7.52
2022-11-16T18:53:58.117Z,7.49
2022-11-16T18:56:26.615Z,7.48
2022-11-16T18:58:54.245Z,7.46
2022-11-16T19:01:25.029Z,7.44
2022-11-16T19:03:55.358Z,7.43
2022-11-16T19:06:24.109Z,7.42
2022-11-16T19:09:08.462Z,7.41
2022-11-16T19:11:46.764Z,7.40
2022-11-16T19:14:18.134Z,7.37
2022-11-16T19:20:08.839Z,7.36
2022-11-16T19:22:37.929Z,7.34
2022-11-16T19:25:06.247Z,7.33
2022-11-16T19:27:35.338Z,7.29
2022-11-16T19:30:03.278Z,7.29
2022-11-16T19:32:32.623Z,7.29
2022-11-16T19:35:00.349Z,7.26
2022-11-16T19:37:29.746Z,7.28
2022-11-16T19:39:57.482Z,7.30
2022-11-16T19:42:29.629Z,7.31
2022-11-16T19:44:57.382Z,7.33
2022-11-16T19:47:25.022Z,7.35
2022-11-16T19:49:53.423Z,7.35
2022-11-16T19:52:20.924Z,7.34
2022-11-16T19:54:48.712Z,7.39
2022-11-16T19:57:49.706Z,7.38
2022-11-16T20:00:22.893Z,7.40
2022-11-16T20:02:50.919Z,7.41
2022-11-16T20:05:18.681Z,7.40
2022-11-16T20:07:46.446Z,7.41
2022-11-16T20:10:14.183Z,7.40
2022-11-16T20:12:41.682Z,7.40
2022-11-16T20:15:09.903Z,7.43
2022-11-16T20:17:37.689Z,7.40
2022-11-16T20:20:05.743Z,7.40
2022-11-16T20:22:33.194Z,7.39
2022-11-16T20:25:00.902Z,7.39
2022-11-16T20:27:28.904Z,7.39
2022-11-16T20:29:56.839Z,7.37
2022-11-16T20:32:24.727Z,7.39
2022-11-16T20:34:52.216Z,7.39
2022-11-16T20:37:19.943Z,7.37
2022-11-16T20:39:48.255Z,7.38
2022-11-16T20:42:15.958Z,7.41
2022-11-16T20:44:44.355Z,7.40
2022-11-16T20:47:13.193Z,7.42
2022-11-16T20:49:41.728Z,7.43
2022-11-16T20:52:09.326Z,7.41
2022-11-16T20:54:36.847Z,7.40
2022-11-16T20:57:04.057Z,7.41
2022-11-16T20:59:32.728Z,7.41
2022-11-16T21:02:00.049Z,7.41
2022-11-16T21:04:27.556Z,7.41
2022-11-16T21:06:54.719Z,7.41
2022-11-16T21:09:21.503Z,7.42
2022-11-16T21:11:49.149Z,7.41
2022-11-16T21:14:16.324Z,7.41
2022-11-16T21:16:44.148Z,7.37
2022-11-16T21:19:12.194Z,7.34
2022-11-16T21:21:39.211Z,7.34
2022-11-16T21:24:07.383Z,7.32
2022-11-16T21:26:35.179Z,7.30
2022-11-16T21:29:02.088Z,7.30
2022-11-16T21:31:31.470Z,7.29
2022-11-16T21:33:59.258Z,7.29
2022-11-16T21:36:28.128Z,7.30
2022-11-16T21:38:56.670Z,7.29
2022-11-16T21:41:25.193Z,7.29
2022-11-16T21:43:51.993Z,7.28
2022-11-16T21:46:24.029Z,7.27
2022-11-16T21:48:51.313Z,7.26
2022-11-16T21:51:20.254Z,7.27
2022-11-16T21:53:47.500Z,7.28
2022-11-16T21:56:17.201Z,7.27
2022-11-16T21:58:44.955Z,7.26
2022-11-16T22:01:13.449Z,7.27
2022-11-16T22:03:40.434Z,7.27
2022-11-16T22:06:11.839Z,7.24
2022-11-16T22:08:39.832Z,7.27
2022-11-16T22:11:09.143Z,7.28
2022-11-16T22:13:37.692Z,7.30
2022-11-16T22:16:09.235Z,7.30
2022-11-16T22:18:36.468Z,7.30
2022-11-16T22:21:04.427Z,7.27
2022-11-16T22:23:32.115Z,7.29
2022-11-16T22:26:03.926Z,7.25
2022-11-16T22:28:32.235Z,7.20
2022-11-16T22:31:03.703Z,7.20
2022-11-16T22:33:30.590Z,7.22
2022-11-16T22:35:57.905Z,7.24
2022-11-16T22:38:24.795Z,7.25
2022-11-16T22:40:52.936Z,7.27
2022-11-16T22:43:21.596Z,7.28
2022-11-16T22:45:48.407Z,7.31
2022-11-16T22:48:15.490Z,7.30
2022-11-16T22:50:42.690Z,7.31
2022-11-16T22:53:10.468Z,7.33
2022-11-16T22:55:38.652Z,7.40
2022-11-16T22:58:06.391Z,7.40
2022-11-16T23:00:38.967Z,7.39
2022-11-16T23:03:06.108Z,7.39
2022-11-16T23:05:32.959Z,7.38
2022-11-16T23:07:59.753Z,7.40
2022-11-16T23:10:26.732Z,7.39
2022-11-16T23:12:54.167Z,7.38
2022-11-16T23:15:20.898Z,7.39
2022-11-16T23:17:47.756Z,7.37
2022-11-16T23:20:17.615Z,7.37
2022-11-16T23:22:45.132Z,7.34
2022-11-16T23:25:12.412Z,7.34
2022-11-16T23:27:57.433Z,7.34
2022-11-16T23:30:24.908Z,7.30
2022-11-16T23:32:51.934Z,7.31
2022-11-16T23:35:18.963Z,7.34
2022-11-16T23:37:53.368Z,7.33
2022-11-16T23:40:21.406Z,7.35
2022-11-16T23:42:48.430Z,7.36
2022-11-16T23:45:15.233Z,7.38
2022-11-16T23:47:42.006Z,7.40
2022-11-16T23:50:09.197Z,7.42
2022-11-16T23:52:37.048Z,7.44
2022-11-16T23:55:04.117Z,7.48
2022-11-16T23:57:30.963Z,7.48
2022-11-16T23:59:57.719Z,7.47
